KDPA/DPA METAR and TAF weather

Enter ICAO airport designator
Station Type Date Time Source
KDPA METAR 2019/04/19 21:52 UTC NOAA

KDPA 192152Z 01025G33KT 10SM CLR 13/M07 A2982 RMK AO2 PK WND 36037/2129 SLP101 T01281067


Station Type Date Time Source
KDPA Decoded METAR 2019/04/19 21:52 UTC NOAA

CHICAGO/WEST CH DUPAGE, IL, United States (KDPA) 41-54N 88-15W 230M
Apr 19, 2019 - 05:52 PM EDT / 2019.04.19 2152 UTC
Wind: from the N (010 degrees) at 29 MPH (25 KT) gusting to 38 MPH (33 KT):0
Visibility: 10 mile(s):0
Sky conditions: clear
Temperature: 55.0 F (12.8 C)
Dew Point: 19.9 F (-6.7 C)
Relative Humidity: 25%
Pressure (altimeter): 29.82 in. Hg (1009 hPa)
ob: KDPA 192152Z 01025G33KT 10SM CLR 13/M07 A2982 RMK AO2 PK WND 36037/2129 SLP101 T01281067
cycle: 22

Station Type Date Time Source
KDPA TAF 2019/04/19 21:59 UTC NOAA

TAF
AMD KDPA 192059Z 1921/2018 02024G35KT P6SM FEW200
FM200000 01016G25KT P6SM FEW200
FM200500 01013G20KT P6SM SKC WS010/03040KT
FM201400 01015G25KT P6SM SKC

Example: see airport list